1879 Hurricane NOT_NAMED (1879228N13341)


IBTrACS version v04r00. Visit IBTrACS website for data access.
Please direct all questions to the IBTrACS Q and A forum

Storm track - Intensity - Wind Radii - Intensity Data - Source Data - All data

Summary Information

Storm ID 1879228N13341
Start Aug 15 18Z
Max Intensity 75 kt (Aug 20 12Z)
End Aug 31 18Z
ATCF IDs
Track status Best track data.

Storm track plot

Map of storm track

Intensity plots

Map of storm track

Radial wind information

No radial wind information for this storm


Position and Intensity Table

BASIN ISO_TIME_________ NATURE LAT LON MLC WIND
degrees north degrees east kts
NA 1879-08-15 18:00:00 TS 12.50 -18.70 30
NA 21:00:00 TS 12.50 -19.25 30
NA 1879-08-16 00:00:00 TS 12.50 -19.80 30
NA 03:00:00 TS 12.50 -20.35 30
NA 06:00:00 TS 12.50 -20.90 30
NA 09:00:00 TS 12.49 -21.44 32
NA 12:00:00 TS 12.50 -22.00 35
NA 15:00:00 TS 12.54 -22.60 35
NA 18:00:00 TS 12.60 -23.20 35
NA 21:00:00 TS 12.65 -23.76 35
NA 1879-08-17 00:00:00 TS 12.70 -24.30 35
NA 03:00:00 TS 12.75 -24.85 35
NA 06:00:00 TS 12.80 -25.40 35
NA 09:00:00 TS 12.84 -25.94 37
NA 12:00:00 TS 12.90 -26.50 40
NA 15:00:00 TS 12.98 -27.09 40
NA 18:00:00 TS 13.10 -27.70 40
NA 21:00:00 TS 13.25 -28.34 42
NA 1879-08-18 00:00:00 TS 13.40 -29.00 45
NA 03:00:00 TS 13.51 -29.66 45
NA 06:00:00 TS 13.60 -30.30 45
NA 09:00:00 TS 13.69 -30.89 47
NA 12:00:00 TS 13.80 -31.50 50
NA 15:00:00 TS 13.94 -32.19 50
NA 18:00:00 TS 14.10 -32.90 50
NA 21:00:00 TS 14.25 -33.61 52
NA 1879-08-19 00:00:00 TS 14.40 -34.30 55
NA 03:00:00 TS 14.55 -34.95 57
NA 06:00:00 TS 14.70 -35.60 60
NA 09:00:00 TS 14.85 -36.29 60
NA 12:00:00 TS 15.00 -37.00 60
NA 15:00:00 TS 15.15 -37.70 65
NA 18:00:00 TS 15.30 -38.40 70
NA 21:00:00 TS 15.45 -39.10 70
NA 1879-08-20 00:00:00 TS 15.60 -39.80 70
NA 03:00:00 TS 15.76 -40.51 70
NA 06:00:00 TS 15.90 -41.20 70
NA 09:00:00 TS 15.98 -41.86 72
NA 12:00:00 TS 16.10 -42.50 75
NA 15:00:00 TS 16.33 -43.16 75
NA 18:00:00 TS 16.60 -43.80 75
NA 21:00:00 TS 16.81 -44.40 75
NA 1879-08-21 00:00:00 TS 17.00 -45.00 75
NA 03:00:00 TS 17.20 -45.65 75
NA 06:00:00 TS 17.40 -46.30 75
NA 09:00:00 TS 17.61 -46.96 75
NA 12:00:00 TS 17.80 -47.50 75
NA 15:00:00 TS 17.96 -47.80 75
NA 18:00:00 TS 18.10 -48.00 75
NA 21:00:00 TS 18.25 -48.25 75
NA 1879-08-22 00:00:00 TS 18.40 -48.50 75
NA 03:00:00 TS 18.55 -48.75 72
NA 06:00:00 TS 18.70 -49.00 70
NA 09:00:00 TS 18.84 -49.27 70
NA 12:00:00 TS 19.00 -49.50 70
NA 15:00:00 TS 19.19 -49.67 70
NA 18:00:00 TS 19.40 -49.80 70
NA 21:00:00 TS 19.60 -49.91 70
NA 1879-08-23 00:00:00 TS 19.80 -50.00 70
NA 03:00:00 TS 20.01 -50.10 67
NA 06:00:00 TS 20.20 -50.20 65
NA 09:00:00 TS 20.33 -50.29 62
NA 12:00:00 TS 20.50 -50.40 60
NA 15:00:00 TS 20.78 -50.58 60
NA 18:00:00 TS 21.10 -50.80 60
NA 21:00:00 TS 21.40 -51.03 57
NA 1879-08-24 00:00:00 TS 21.70 -51.20 55
NA 03:00:00 TS 22.01 -51.23 55
NA 06:00:00 TS 22.30 -51.20 55
NA 09:00:00 TS 22.56 -51.19 52
NA 12:00:00 TS 22.80 -51.20 50
NA 15:00:00 TS 23.06 -51.28 50
NA 18:00:00 TS 23.30 -51.40 50
NA 21:00:00 TS 23.51 -51.50 50
NA 1879-08-25 00:00:00 TS 23.70 -51.60 50
NA 03:00:00 TS 23.90 -51.70 50
NA 06:00:00 TS 24.10 -51.80 50
NA 09:00:00 TS 24.30 -51.92 50
NA 12:00:00 TS 24.50 -52.00 50
NA 15:00:00 TS 24.70 -51.97 50
NA 18:00:00 TS 24.90 -51.90 50
NA 21:00:00 TS 25.10 -51.85 50
NA 1879-08-26 00:00:00 TS 25.30 -51.80 50
NA 03:00:00 TS 25.51 -51.75 50
NA 06:00:00 TS 25.70 -51.70 50
NA 09:00:00 TS 25.86 -51.66 50
NA 12:00:00 TS 26.00 -51.60 50
NA 15:00:00 TS 26.16 -51.47 50
NA 18:00:00 TS 26.30 -51.30 50
NA 21:00:00 TS 26.40 -51.15 50
NA 1879-08-27 00:00:00 TS 26.50 -51.00 50
NA 03:00:00 TS 26.65 -50.84 50
NA 06:00:00 TS 26.80 -50.70 50
NA 09:00:00 TS 26.89 -50.59 50
NA 12:00:00 TS 27.00 -50.50 50
NA 15:00:00 TS 27.19 -50.39 50
NA 18:00:00 TS 27.40 -50.30 50
NA 21:00:00 TS 27.60 -50.24 50
NA 1879-08-28 00:00:00 TS 27.80 -50.20 50
NA 03:00:00 TS 28.01 -50.15 50
NA 06:00:00 TS 28.20 -50.10 50
NA 09:00:00 TS 28.33 -50.05 50
NA 12:00:00 TS 28.50 -50.00 50
NA 15:00:00 TS 28.82 -49.94 50
NA 18:00:00 TS 29.20 -49.90 50
NA 21:00:00 TS 29.55 -49.90 50
NA 1879-08-29 00:00:00 TS 29.90 -49.90 50
NA 03:00:00 TS 30.25 -49.85 50
NA 06:00:00 TS 30.60 -49.80 50
NA 09:00:00 TS 30.92 -49.78 50
NA 12:00:00 TS 31.30 -49.80 50
NA 15:00:00 TS 31.83 -49.89 50
NA 18:00:00 TS 32.40 -50.00 50
NA 21:00:00 TS 32.90 -50.06 47
NA 1879-08-30 00:00:00 TS 33.40 -50.10 45
NA 03:00:00 TS 33.95 -50.16 45
NA 06:00:00 TS 34.50 -50.20 45
NA 09:00:00 TS 35.07 -50.26 42
NA 12:00:00 TS 35.50 -50.20 40
NA 15:00:00 TS 35.67 -49.90 40
NA 18:00:00 TS 35.70 -49.50 40
NA 21:00:00 TS 35.76 -49.14 37
NA 1879-08-31 00:00:00 TS 35.80 -48.80 35
NA 03:00:00 TS 35.85 -48.50 35
NA 06:00:00 TS 35.90 -48.20 35
NA 09:00:00 TS 35.88 -47.92 35
NA 12:00:00 TS 36.00 -47.50 35
NA 15:00:00 TS 36.41 -46.83 35
NA 18:00:00 TS 37.00 -46.00 35

Source Information

Agency Information
USA
TOKYO
CMA
HKO
NEWDELHI
REUNION
BOM
NADI
WELLINGTON
DS824
TD9636
TD9635
NEUMANN
MLC

All available IBTrACS Data

SEASON BASIN SUBBASIN ISO_TIME_________ NATURE LAT LON DIST2LAND LANDFALL IFLAG USA SSHS MLC LAT MLC LON MLC CLASS MLC WIND STORM SPEED STORM DIR
Year degrees north degrees east km km 1 degrees north degrees east kts kts degrees
1879 NA NA 1879-08-15 18:00:00 TS 12.50 -18.70 206 206 _____________O -1 12.50 -18.70 TD 30 11 270
1879 NA NA 21:00:00 TS 12.50 -19.25 260 271 _____________P -1 12.50 -19.25 TD 30 11 270
1879 NA NA 1879-08-16 00:00:00 TS 12.50 -19.80 326 326 _____________O -1 12.50 -19.80 TD 30 11 270
1879 NA NA 03:00:00 TS 12.50 -20.35 380 380 _____________P -1 12.50 -20.35 TD 30 11 270
1879 NA NA 06:00:00 TS 12.50 -20.90 442 442 _____________O -1 12.50 -20.90 TD 30 11 270
1879 NA NA 09:00:00 TS 12.49 -21.44 488 488 _____________P -1 12.49 -21.44 TD 32 11 270
1879 NA NA 12:00:00 TS 12.50 -22.00 545 545 _____________O -1 12.50 -22.00 TS 35 11 273
1879 NA NA 15:00:00 TS 12.54 -22.60 603 603 _____________P -1 12.54 -22.60 TS 35 12 275
1879 NA NA 18:00:00 TS 12.60 -23.20 659 659 _____________O -1 12.60 -23.20 TS 35 11 275
1879 NA NA 21:00:00 TS 12.65 -23.76 720 716 _____________P -1 12.65 -23.76 TS 35 11 275
1879 NA NA 1879-08-17 00:00:00 TS 12.70 -24.30 768 768 _____________O -1 12.70 -24.30 TS 35 11 275
1879 NA NA 03:00:00 TS 12.75 -24.85 830 827 _____________P -1 12.75 -24.85 TS 35 11 275
1879 NA NA 06:00:00 TS 12.80 -25.40 879 879 _____________O -1 12.80 -25.40 TS 35 11 275
1879 NA NA 09:00:00 TS 12.84 -25.94 932 932 _____________P -1 12.84 -25.94 TS 37 11 275
1879 NA NA 12:00:00 TS 12.90 -26.50 992 992 _____________O -1 12.90 -26.50 TS 40 11 277
1879 NA NA 15:00:00 TS 12.98 -27.09 1054 1054 _____________P -1 12.98 -27.09 TS 40 12 280
1879 NA NA 18:00:00 TS 13.10 -27.70 1115 1115 _____________O -1 13.10 -27.70 TS 40 13 282
1879 NA NA 21:00:00 TS 13.25 -28.34 1177 1177 _____________P -1 13.25 -28.34 TS 42 13 283
1879 NA NA 1879-08-18 00:00:00 TS 13.40 -29.00 1249 1249 _____________O -1 13.40 -29.00 TS 45 13 281
1879 NA NA 03:00:00 TS 13.51 -29.66 1323 1323 _____________P -1 13.51 -29.66 TS 45 13 279
1879 NA NA 06:00:00 TS 13.60 -30.30 1386 1386 _____________O -1 13.60 -30.30 TS 45 12 279
1879 NA NA 09:00:00 TS 13.69 -30.89 1449 1449 _____________P -1 13.69 -30.89 TS 47 12 280
1879 NA NA 12:00:00 TS 13.80 -31.50 1512 1512 _____________O -1 13.80 -31.50 TS 50 13 281
1879 NA NA 15:00:00 TS 13.94 -32.19 1586 1586 _____________P -1 13.94 -32.19 TS 50 14 282
1879 NA NA 18:00:00 TS 14.10 -32.90 1660 1660 _____________O -1 14.10 -32.90 TS 50 14 283
1879 NA NA 21:00:00 TS 14.25 -33.61 1734 1734 _____________P -1 14.25 -33.61 TS 52 14 282
1879 NA NA 1879-08-19 00:00:00 TS 14.40 -34.30 1808 1808 _____________O -1 14.40 -34.30 TS 55 13 283
1879 NA NA 03:00:00 TS 14.55 -34.95 1883 1883 _____________P -1 14.55 -34.95 TS 57 13 283
1879 NA NA 06:00:00 TS 14.70 -35.60 1947 1947 _____________O -1 14.70 -35.60 TS 60 13 283
1879 NA NA 09:00:00 TS 14.85 -36.29 2020 1972 _____________P -1 14.85 -36.29 TS 60 14 283
1879 NA NA 12:00:00 TS 15.00 -37.00 1972 1918 _____________O -1 15.00 -37.00 TS 60 14 282
1879 NA NA 15:00:00 TS 15.15 -37.70 1918 1874 _____________P -1 15.15 -37.70 TS 65 14 283
1879 NA NA 18:00:00 TS 15.30 -38.40 1874 1824 _____________O -1 15.30 -38.40 HU 70 14 283
1879 NA NA 21:00:00 TS 15.45 -39.10 1824 1784 _____________P -1 15.45 -39.10 HU 70 14 283
1879 NA NA 1879-08-20 00:00:00 TS 15.60 -39.80 1784 1739 _____________O -1 15.60 -39.80 HU 70 14 283
1879 NA NA 03:00:00 TS 15.76 -40.51 1747 1705 _____________P -1 15.76 -40.51 HU 70 14 283
1879 NA NA 06:00:00 TS 15.90 -41.20 1705 1672 _____________O -1 15.90 -41.20 HU 70 13 280
1879 NA NA 09:00:00 TS 15.98 -41.86 1665 1634 _____________P -1 15.98 -41.86 HU 72 13 279
1879 NA NA 12:00:00 TS 16.10 -42.50 1634 1615 _____________O -1 16.10 -42.50 HU 75 13 286
1879 NA NA 15:00:00 TS 16.33 -43.16 1609 1595 _____________P -1 16.33 -43.16 HU 75 13 292
1879 NA NA 18:00:00 TS 16.60 -43.80 1597 1576 _____________O -1 16.60 -43.80 HU 75 13 292
1879 NA NA 21:00:00 TS 16.81 -44.40 1576 1559 _____________P -1 16.81 -44.40 HU 75 12 289
1879 NA NA 1879-08-21 00:00:00 TS 17.00 -45.00 1559 1540 _____________O -1 17.00 -45.00 HU 75 13 288
1879 NA NA 03:00:00 TS 17.20 -45.65 1539 1528 _____________P -1 17.20 -45.65 HU 75 13 288
1879 NA NA 06:00:00 TS 17.40 -46.30 1528 1518 _____________O -1 17.40 -46.30 HU 75 13 288
1879 NA NA 09:00:00 TS 17.61 -46.96 1515 1507 _____________P -1 17.61 -46.96 HU 75 12 289
1879 NA NA 12:00:00 TS 17.80 -47.50 1513 1509 _____________O -1 17.80 -47.50 HU 75 9 294
1879 NA NA 15:00:00 TS 17.96 -47.80 1522 1517 _____________P -1 17.96 -47.80 HU 75 6 302
1879 NA NA 18:00:00 TS 18.10 -48.00 1523 1518 _____________O -1 18.10 -48.00 HU 75 5 305
1879 NA NA 21:00:00 TS 18.25 -48.25 1519 1519 _____________P -1 18.25 -48.25 HU 75 6 302
1879 NA NA 1879-08-22 00:00:00 TS 18.40 -48.50 1530 1525 _____________O -1 18.40 -48.50 HU 75 6 302
1879 NA NA 03:00:00 TS 18.55 -48.75 1527 1527 _____________P -1 18.55 -48.75 HU 72 6 302
1879 NA NA 06:00:00 TS 18.70 -49.00 1540 1536 _____________O -1 18.70 -49.00 HU 70 6 301
1879 NA NA 09:00:00 TS 18.84 -49.27 1539 1539 _____________P -1 18.84 -49.27 HU 70 6 302
1879 NA NA 12:00:00 TS 19.00 -49.50 1545 1541 _____________O -1 19.00 -49.50 HU 70 5 312
1879 NA NA 15:00:00 TS 19.19 -49.67 1541 1539 _____________P -1 19.19 -49.67 HU 70 5 325
1879 NA NA 18:00:00 TS 19.40 -49.80 1546 1545 _____________O -1 19.40 -49.80 HU 70 5 332
1879 NA NA 21:00:00 TS 19.60 -49.91 1552 1550 _____________P -1 19.60 -49.91 HU 70 4 335
1879 NA NA 1879-08-23 00:00:00 TS 19.80 -50.00 1557 1557 _____________O -1 19.80 -50.00 HU 70 4 336
1879 NA NA 03:00:00 TS 20.01 -50.10 1564 1563 _____________P -1 20.01 -50.10 HU 67 4 335
1879 NA NA 06:00:00 TS 20.20 -50.20 1570 1570 _____________O -1 20.20 -50.20 HU 65 4 332
1879 NA NA 09:00:00 TS 20.33 -50.29 1570 1570 _____________P -1 20.33 -50.29 HU 62 4 329
1879 NA NA 12:00:00 TS 20.50 -50.40 1577 1577 _____________O -1 20.50 -50.40 TS 60 5 328
1879 NA NA 15:00:00 TS 20.78 -50.58 1585 1575 _____________P -1 20.78 -50.58 TS 60 7 328
1879 NA NA 18:00:00 TS 21.10 -50.80 1577 1560 _____________O -1 21.10 -50.80 TS 60 8 326
1879 NA NA 21:00:00 TS 21.40 -51.03 1562 1545 _____________P -1 21.40 -51.03 TS 57 7 328
1879 NA NA 1879-08-24 00:00:00 TS 21.70 -51.20 1547 1547 _____________O -1 21.70 -51.20 TS 55 6 343
1879 NA NA 03:00:00 TS 22.01 -51.23 1554 1554 _____________P -1 22.01 -51.23 TS 55 6 1
1879 NA NA 06:00:00 TS 22.30 -51.20 1562 1562 _____________O -1 22.30 -51.20 TS 55 6 4
1879 NA NA 09:00:00 TS 22.56 -51.19 1570 1570 _____________P -1 22.56 -51.19 TS 52 5 2
1879 NA NA 12:00:00 TS 22.80 -51.20 1576 1572 _____________O -1 22.80 -51.20 TS 50 5 350
1879 NA NA 15:00:00 TS 23.06 -51.28 1575 1569 _____________P -1 23.06 -51.28 TS 50 5 340
1879 NA NA 18:00:00 TS 23.30 -51.40 1572 1566 _____________O -1 23.30 -51.40 TS 50 5 336
1879 NA NA 21:00:00 TS 23.51 -51.50 1570 1563 _____________P -1 23.51 -51.50 TS 50 4 336
1879 NA NA 1879-08-25 00:00:00 TS 23.70 -51.60 1567 1561 _____________O -1 23.70 -51.60 TS 50 4 335
1879 NA NA 03:00:00 TS 23.90 -51.70 1565 1560 _____________P -1 23.90 -51.70 TS 50 4 336
1879 NA NA 06:00:00 TS 24.10 -51.80 1564 1558 _____________O -1 24.10 -51.80 TS 50 5 333
1879 NA NA 09:00:00 TS 24.30 -51.92 1563 1558 _____________P -1 24.30 -51.92 TS 50 4 336
1879 NA NA 12:00:00 TS 24.50 -52.00 1562 1562 _____________O -1 24.50 -52.00 TS 50 4 355
1879 NA NA 15:00:00 TS 24.70 -51.97 1571 1571 _____________P -1 24.70 -51.97 TS 50 4 12
1879 NA NA 18:00:00 TS 24.90 -51.90 1589 1589 _____________O -1 24.90 -51.90 TS 50 4 15
1879 NA NA 21:00:00 TS 25.10 -51.85 1608 1608 _____________P -1 25.10 -51.85 TS 50 4 12
1879 NA NA 1879-08-26 00:00:00 TS 25.30 -51.80 1617 1617 _____________O -1 25.30 -51.80 TS 50 4 12
1879 NA NA 03:00:00 TS 25.51 -51.75 1636 1636 _____________P -1 25.51 -51.75 TS 50 4 12
1879 NA NA 06:00:00 TS 25.70 -51.70 1646 1646 _____________O -1 25.70 -51.70 TS 50 4 12
1879 NA NA 09:00:00 TS 25.86 -51.66 1656 1656 _____________P -1 25.86 -51.66 TS 50 3 16
1879 NA NA 12:00:00 TS 26.00 -51.60 1670 1670 _____________O -1 26.00 -51.60 TS 50 4 31
1879 NA NA 15:00:00 TS 26.16 -51.47 1690 1690 _____________P -1 26.16 -51.47 TS 50 4 42
1879 NA NA 18:00:00 TS 26.30 -51.30 1712 1712 _____________O -1 26.30 -51.30 TS 50 4 49
1879 NA NA 21:00:00 TS 26.40 -51.15 1735 1735 _____________P -1 26.40 -51.15 TS 50 3 53
1879 NA NA 1879-08-27 00:00:00 TS 26.50 -51.00 1749 1749 _____________O -1 26.50 -51.00 TS 50 4 48
1879 NA NA 03:00:00 TS 26.65 -50.84 1777 1777 _____________P -1 26.65 -50.84 TS 50 4 42
1879 NA NA 06:00:00 TS 26.80 -50.70 1791 1791 _____________O -1 26.80 -50.70 TS 50 3 43
1879 NA NA 09:00:00 TS 26.89 -50.59 1806 1806 _____________P -1 26.89 -50.59 TS 50 3 42
1879 NA NA 12:00:00 TS 27.00 -50.50 1820 1820 _____________O -1 27.00 -50.50 TS 50 3 31
1879 NA NA 15:00:00 TS 27.19 -50.39 1839 1839 _____________P -1 27.19 -50.39 TS 50 4 24
1879 NA NA 18:00:00 TS 27.40 -50.30 1859 1859 _____________O -1 27.40 -50.30 TS 50 4 18
1879 NA NA 21:00:00 TS 27.60 -50.24 1878 1878 _____________P -1 27.60 -50.24 TS 50 4 12
1879 NA NA 1879-08-28 00:00:00 TS 27.80 -50.20 1889 1889 _____________O -1 27.80 -50.20 TS 50 4 11
1879 NA NA 03:00:00 TS 28.01 -50.15 1909 1909 _____________P -1 28.01 -50.15 TS 50 4 12
1879 NA NA 06:00:00 TS 28.20 -50.10 1921 1921 _____________O -1 28.20 -50.10 TS 50 3 15
1879 NA NA 09:00:00 TS 28.33 -50.05 1935 1935 _____________P -1 28.33 -50.05 TS 50 3 16
1879 NA NA 12:00:00 TS 28.50 -50.00 1947 1947 _____________O -1 28.50 -50.00 TS 50 5 11
1879 NA NA 15:00:00 TS 28.82 -49.94 1973 1958 _____________P -1 28.82 -49.94 TS 50 7 7
1879 NA NA 18:00:00 TS 29.20 -49.90 1958 1925 _____________O -1 29.20 -49.90 TS 50 7 2
1879 NA NA 21:00:00 TS 29.55 -49.90 1925 1881 _____________P -1 29.55 -49.90 TS 50 7 0
1879 NA NA 1879-08-29 00:00:00 TS 29.90 -49.90 1881 1847 _____________O -1 29.90 -49.90 TS 50 7 3
1879 NA NA 03:00:00 TS 30.25 -49.85 1836 1805 _____________P -1 30.25 -49.85 TS 50 7 7
1879 NA NA 06:00:00 TS 30.60 -49.80 1805 1771 _____________O -1 30.60 -49.80 TS 50 7 5
1879 NA NA 09:00:00 TS 30.92 -49.78 1771 1727 _____________P -1 30.92 -49.78 TS 50 7 0
1879 NA NA 12:00:00 TS 31.30 -49.80 1727 1671 _____________O -1 31.30 -49.80 TS 50 9 354
1879 NA NA 15:00:00 TS 31.83 -49.89 1671 1603 _____________P -1 31.83 -49.89 TS 50 11 351
1879 NA NA 18:00:00 TS 32.40 -50.00 1603 1547 _____________O -1 32.40 -50.00 TS 50 11 353
1879 NA NA 21:00:00 TS 32.90 -50.06 1547 1492 _____________P -1 32.90 -50.06 TS 47 10 355
1879 NA NA 1879-08-30 00:00:00 TS 33.40 -50.10 1492 1435 _____________O -1 33.40 -50.10 TS 45 11 356
1879 NA NA 03:00:00 TS 33.95 -50.16 1424 1369 _____________P -1 33.95 -50.16 TS 45 11 356
1879 NA NA 06:00:00 TS 34.50 -50.20 1369 1313 _____________O -1 34.50 -50.20 TS 45 11 355
1879 NA NA 09:00:00 TS 35.07 -50.26 1302 1259 _____________P -1 35.07 -50.26 TS 42 10 1
1879 NA NA 12:00:00 TS 35.50 -50.20 1259 1241 _____________O -1 35.50 -50.20 TS 40 7 26
1879 NA NA 15:00:00 TS 35.67 -49.90 1243 1243 _____________P -1 35.67 -49.90 TS 40 6 71
1879 NA NA 18:00:00 TS 35.70 -49.50 1250 1246 _____________O -1 35.70 -49.50 TS 40 6 82
1879 NA NA 21:00:00 TS 35.76 -49.14 1248 1248 _____________P -1 35.76 -49.14 TS 37 6 80
1879 NA NA 1879-08-31 00:00:00 TS 35.80 -48.80 1255 1255 _____________O -1 35.80 -48.80 TS 35 5 80
1879 NA NA 03:00:00 TS 35.85 -48.50 1263 1252 _____________P -1 35.85 -48.50 TS 35 5 78
1879 NA NA 06:00:00 TS 35.90 -48.20 1260 1260 _____________O -1 35.90 -48.20 TS 35 5 86
1879 NA NA 09:00:00 TS 35.88 -47.92 1268 1267 _____________P -1 35.88 -47.92 TS 35 6 80
1879 NA NA 12:00:00 TS 36.00 -47.50 1270 1248 _____________O -1 36.00 -47.50 TS 35 10 59
1879 NA NA 15:00:00 TS 36.41 -46.83 1251 1221 _____________P -1 36.41 -46.83 TS 35 16 50
1879 NA NA 18:00:00 TS 37.00 -46.00 1221 _____________O -1 37.00 -46.00 TS 35 18 48